Terminal Aerodrome Forecast
Issued by NWS St Louis, MO

Home | Current Version | Previous Version | Text Only | Print | Product List | Glossary On
Versions: 1 2 3 4 5 6 7 8 9 10 11 12 13 14 15 16 17 18 19 20
000
FTUS43 KLSX 221738
TAFCOU
TAF
KCOU 221738Z 2218/2318 22010KT P6SM BKN080
     FM222300 24007KT P6SM VCTS BKN060CB
     FM230300 VRB03KT 6SM -SHRA OVC060
     FM230600 VRB03KT P6SM VCSH OVC040
     FM231100 20004KT P6SM VCSH BKN015=

USA.gov is the U.S. government's official web portal to all federal, state and local government web resources and services.